Nearby METAR Reports

 

TNCA - Queen Beatrix, Lesser Antilles
Distance from station: 0 0km
Updated: 20/01/2018 03:00
NOT Current
Few Clouds
Few Clouds
 Wind from E
Wind: E 26 km/h
Temperature: 27°C
Heat Index: 30°C
Dew Point: 23°C
Humidity: 79%
Barometer: 1012 hPa
Clouds: Few Clouds
Visibility: 10 km
Cloud details: Few Clouds 549 m
2018/01/20 07:00 TNCA 200700Z 09014KT 9999 FEW018 27/23 Q1012 A2990 NOSIG
SVJC - Paraguana/Josefa, Venezuela
Distance from station: S 83km
Updated: 05/12/2017 15:00
NOT Current

 
2017/12/05 19:00 SVJC 051900Z NL
 
TNCC - Hato Air Curacao, Lesser Antilles
Distance from station: ESE 117km
Updated: 20/01/2018 04:00
Few Clouds
Few Clouds
 Wind from E
Wind: E 22 km/h
Temperature: 26°C
Dew Point: 23°C
Humidity: 84%
Barometer: 1013 hPa
Clouds: Few Clouds
Visibility: 10 km
Cloud details: Few Clouds 549 m
2018/01/20 08:00 TNCC 200800Z 10012KT 9999 FEW018 26/23 Q1013 NOSIG
SVCR - Coro/Jose Leonar, Venezuela
Distance from station: SSE 126km
Updated: 19/01/2018 19:00
NOT Current
Few Clouds
Few Clouds
 Wind from varies
Wind: varies 0 km/h
Temperature: 29°C
Heat Index: 32°C
Dew Point: 23°C
Humidity: 70%
Barometer: 1011 hPa
Clouds: Few Clouds
Visibility: 10 km
Cloud details: Few Clouds 488 m
2018/01/19 23:00 SVCR 192300Z /////KT 9999 FEW016 29/23 Q1011
 
TNCB - Bonaire/Flamingo, Lesser Antilles
Distance from station: ESE 191km
Updated: 20/01/2018 03:55
Few Clouds
Few Clouds
 Wind from E
Wind: E 24 km/h
Temperature: 26°C
Dew Point: 23°C
Humidity: 84%
Barometer: 1013 hPa
Clouds: Few Clouds
Cloud details: Few Clouds 732 m
2018/01/20 07:55 TNCB 200755Z AUTO 08013KT //// // FEW024/// 26/23 Q1013 RE//
SVMC - Maracaibo/La Chi, Venezuela
Distance from station: SW 285km
Updated: 15/01/2018 11:00
NOT Current

 
Visibility: 68 miles
2018/01/15 15:00 SVMC 151500Z 42470 23602 10312 20265 30065 40139 825000 333 30/// 56900 59012 82613 10139